sensor_id;sensor_type;location;lat;lon;timestamp;temperature;humidity
19665;DHT22;9980;51.020;7.772;2023-04-15T00:01:48;6.90;90.40
19665;DHT22;9980;51.020;7.772;2023-04-15T00:04:14;6.80;90.40
19665;DHT22;9980;51.020;7.772;2023-04-15T00:06:41;6.80;90.40
19665;DHT22;9980;51.020;7.772;2023-04-15T00:09:07;6.70;90.40
19665;DHT22;9980;51.020;7.772;2023-04-15T00:11:33;6.70;90.40
19665;DHT22;9980;51.020;7.772;2023-04-15T00:14:00;6.70;90.50
19665;DHT22;9980;51.020;7.772;2023-04-15T00:16:26;6.70;90.60
19665;DHT22;9980;51.020;7.772;2023-04-15T00:18:53;6.60;90.50
19665;DHT22;9980;51.020;7.772;2023-04-15T00:21:19;6.60;90.60
19665;DHT22;9980;51.020;7.772;2023-04-15T00:23:46;6.50;90.60
19665;DHT22;9980;51.020;7.772;2023-04-15T00:26:17;6.50;90.70
19665;DHT22;9980;51.020;7.772;2023-04-15T00:28:46;6.50;90.70
19665;DHT22;9980;51.020;7.772;2023-04-15T00:31:12;6.40;90.80
19665;DHT22;9980;51.020;7.772;2023-04-15T00:33:39;6.40;90.80
19665;DHT22;9980;51.020;7.772;2023-04-15T00:36:06;6.40;90.90
19665;DHT22;9980;51.020;7.772;2023-04-15T00:38:33;6.30;91.00
19665;DHT22;9980;51.020;7.772;2023-04-15T00:40:59;6.30;91.40
19665;DHT22;9980;51.020;7.772;2023-04-15T00:43:26;6.30;91.10
19665;DHT22;9980;51.020;7.772;2023-04-15T00:45:53;6.20;91.20
19665;DHT22;9980;51.020;7.772;2023-04-15T00:48:22;6.20;91.20
19665;DHT22;9980;51.020;7.772;2023-04-15T00:50:49;6.20;91.60
19665;DHT22;9980;51.020;7.772;2023-04-15T00:53:15;6.10;91.30
19665;DHT22;9980;51.020;7.772;2023-04-15T00:55:41;6.10;91.40
19665;DHT22;9980;51.020;7.772;2023-04-15T00:58:07;6.10;91.40
19665;DHT22;9980;51.020;7.772;2023-04-15T01:00:33;6.00;91.50
19665;DHT22;9980;51.020;7.772;2023-04-15T01:03:00;6.00;91.50
19665;DHT22;9980;51.020;7.772;2023-04-15T01:05:29;6.00;91.40
19665;DHT22;9980;51.020;7.772;2023-04-15T01:07:56;6.00;91.50
19665;DHT22;9980;51.020;7.772;2023-04-15T01:10:22;5.90;91.50
19665;DHT22;9980;51.020;7.772;2023-04-15T01:12:49;5.90;91.60
19665;DHT22;9980;51.020;7.772;2023-04-15T01:15:16;5.90;91.60
19665;DHT22;9980;51.020;7.772;2023-04-15T01:17:42;5.90;91.60
19665;DHT22;9980;51.020;7.772;2023-04-15T01:20:08;5.80;91.70
19665;DHT22;9980;51.020;7.772;2023-04-15T01:22:35;5.80;91.70
19665;DHT22;9980;51.020;7.772;2023-04-15T01:25:07;5.80;91.80
19665;DHT22;9980;51.020;7.772;2023-04-15T01:27:38;5.70;92.10
19665;DHT22;9980;51.020;7.772;2023-04-15T01:30:07;5.70;92.00
19665;DHT22;9980;51.020;7.772;2023-04-15T01:32:34;5.70;92.00
19665;DHT22;9980;51.020;7.772;2023-04-15T01:35:00;5.60;92.00
19665;DHT22;9980;51.020;7.772;2023-04-15T01:37:27;5.60;92.00
19665;DHT22;9980;51.020;7.772;2023-04-15T01:39:54;5.60;92.10
19665;DHT22;9980;51.020;7.772;2023-04-15T01:42:22;5.60;92.20
19665;DHT22;9980;51.020;7.772;2023-04-15T01:44:48;5.60;92.20
19665;DHT22;9980;51.020;7.772;2023-04-15T01:47:14;5.50;92.20
19665;DHT22;9980;51.020;7.772;2023-04-15T01:49:40;5.50;92.30
19665;DHT22;9980;51.020;7.772;2023-04-15T01:52:07;5.50;92.30
19665;DHT22;9980;51.020;7.772;2023-04-15T01:54:33;5.50;92.40
19665;DHT22;9980;51.020;7.772;2023-04-15T01:57:00;5.40;92.40
19665;DHT22;9980;51.020;7.772;2023-04-15T01:59:27;5.40;92.40
19665;DHT22;9980;51.020;7.772;2023-04-15T02:01:54;5.40;92.50
19665;DHT22;9980;51.020;7.772;2023-04-15T02:04:20;5.30;92.40
19665;DHT22;9980;51.020;7.772;2023-04-15T02:06:47;5.40;92.50
19665;DHT22;9980;51.020;7.772;2023-04-15T02:09:13;5.30;92.50
19665;DHT22;9980;51.020;7.772;2023-04-15T02:11:39;5.30;92.50
19665;DHT22;9980;51.020;7.772;2023-04-15T02:14:05;5.30;92.50
19665;DHT22;9980;51.020;7.772;2023-04-15T02:16:32;5.30;92.40
19665;DHT22;9980;51.020;7.772;2023-04-15T02:18:59;5.20;92.50
19665;DHT22;9980;51.020;7.772;2023-04-15T02:21:26;5.20;92.60
19665;DHT22;9980;51.020;7.772;2023-04-15T02:23:52;5.20;92.60
19665;DHT22;9980;51.020;7.772;2023-04-15T02:26:19;5.20;92.60
19665;DHT22;9980;51.020;7.772;2023-04-15T02:28:47;5.10;92.60
19665;DHT22;9980;51.020;7.772;2023-04-15T02:31:16;5.10;92.70
19665;DHT22;9980;51.020;7.772;2023-04-15T02:33:42;5.10;92.80
19665;DHT22;9980;51.020;7.772;2023-04-15T02:36:08;5.10;92.90
19665;DHT22;9980;51.020;7.772;2023-04-15T02:38:37;5.10;92.90
19665;DHT22;9980;51.020;7.772;2023-04-15T02:41:06;5.00;92.90
19665;DHT22;9980;51.020;7.772;2023-04-15T02:43:34;5.00;92.90
19665;DHT22;9980;51.020;7.772;2023-04-15T02:46:00;5.00;93.00
19665;DHT22;9980;51.020;7.772;2023-04-15T02:48:26;5.00;93.00
19665;DHT22;9980;51.020;7.772;2023-04-15T02:50:53;4.90;93.00
19665;DHT22;9980;51.020;7.772;2023-04-15T02:53:19;4.90;93.00
19665;DHT22;9980;51.020;7.772;2023-04-15T02:55:46;4.90;93.10
19665;DHT22;9980;51.020;7.772;2023-04-15T02:58:12;4.90;93.10
19665;DHT22;9980;51.020;7.772;2023-04-15T03:00:39;4.90;93.20
19665;DHT22;9980;51.020;7.772;2023-04-15T03:03:05;4.90;93.10
19665;DHT22;9980;51.020;7.772;2023-04-15T03:05:31;4.80;93.00
19665;DHT22;9980;51.020;7.772;2023-04-15T03:07:58;4.80;93.00
19665;DHT22;9980;51.020;7.772;2023-04-15T03:10:26;4.80;93.00
19665;DHT22;9980;51.020;7.772;2023-04-15T03:12:53;4.80;93.10
19665;DHT22;9980;51.020;7.772;2023-04-15T03:15:22;4.80;93.10
19665;DHT22;9980;51.020;7.772;2023-04-15T03:17:50;4.80;93.30
19665;DHT22;9980;51.020;7.772;2023-04-15T03:20:17;4.70;93.30
19665;DHT22;9980;51.020;7.772;2023-04-15T03:22:43;4.70;93.10
19665;DHT22;9980;51.020;7.772;2023-04-15T03:25:10;4.70;93.10
19665;DHT22;9980;51.020;7.772;2023-04-15T03:27:37;4.70;93.30
19665;DHT22;9980;51.020;7.772;2023-04-15T03:30:04;4.70;93.30
19665;DHT22;9980;51.020;7.772;2023-04-15T03:32:32;4.70;93.30
19665;DHT22;9980;51.020;7.772;2023-04-15T03:34:59;4.60;93.30
19665;DHT22;9980;51.020;7.772;2023-04-15T03:37:25;4.60;93.30
19665;DHT22;9980;51.020;7.772;2023-04-15T03:39:52;4.60;93.40
19665;DHT22;9980;51.020;7.772;2023-04-15T03:42:18;4.60;93.40
19665;DHT22;9980;51.020;7.772;2023-04-15T03:44:44;4.60;93.40
19665;DHT22;9980;51.020;7.772;2023-04-15T03:47:10;4.60;93.40
19665;DHT22;9980;51.020;7.772;2023-04-15T03:49:36;4.50;93.40
19665;DHT22;9980;51.020;7.772;2023-04-15T03:52:03;4.50;93.50
19665;DHT22;9980;51.020;7.772;2023-04-15T03:54:29;4.50;93.40
19665;DHT22;9980;51.020;7.772;2023-04-15T03:56:56;4.50;93.50
19665;DHT22;9980;51.020;7.772;2023-04-15T03:59:22;4.50;93.50
19665;DHT22;9980;51.020;7.772;2023-04-15T04:01:48;4.50;93.50
19665;DHT22;9980;51.020;7.772;2023-04-15T04:04:15;4.40;93.50
19665;DHT22;9980;51.020;7.772;2023-04-15T04:06:42;4.40;93.50
19665;DHT22;9980;51.020;7.772;2023-04-15T04:09:08;4.40;93.50
19665;DHT22;9980;51.020;7.772;2023-04-15T04:11:34;4.40;93.60
19665;DHT22;9980;51.020;7.772;2023-04-15T04:14:02;4.40;93.70
19665;DHT22;9980;51.020;7.772;2023-04-15T04:16:28;4.40;93.60
19665;DHT22;9980;51.020;7.772;2023-04-15T04:18:55;4.40;93.50
19665;DHT22;9980;51.020;7.772;2023-04-15T04:21:21;4.40;93.50
19665;DHT22;9980;51.020;7.772;2023-04-15T04:23:47;4.30;93.50
19665;DHT22;9980;51.020;7.772;2023-04-15T04:26:13;4.30;93.50
19665;DHT22;9980;51.020;7.772;2023-04-15T04:28:40;4.30;93.60
19665;DHT22;9980;51.020;7.772;2023-04-15T04:31:06;4.30;93.60
19665;DHT22;9980;51.020;7.772;2023-04-15T04:33:33;4.30;93.60
19665;DHT22;9980;51.020;7.772;2023-04-15T04:35:59;4.30;93.70
19665;DHT22;9980;51.020;7.772;2023-04-15T04:38:26;4.30;93.70
19665;DHT22;9980;51.020;7.772;2023-04-15T04:40:52;4.30;93.70
19665;DHT22;9980;51.020;7.772;2023-04-15T04:43:18;4.30;93.70
19665;DHT22;9980;51.020;7.772;2023-04-15T04:45:44;4.30;93.80
19665;DHT22;9980;51.020;7.772;2023-04-15T04:48:11;4.30;93.90
19665;DHT22;9980;51.020;7.772;2023-04-15T04:50:37;4.30;93.90
19665;DHT22;9980;51.020;7.772;2023-04-15T04:53:04;4.30;94.00
19665;DHT22;9980;51.020;7.772;2023-04-15T04:55:30;4.30;93.90
19665;DHT22;9980;51.020;7.772;2023-04-15T04:57:57;4.30;93.90
19665;DHT22;9980;51.020;7.772;2023-04-15T05:00:23;4.30;94.10
19665;DHT22;9980;51.020;7.772;2023-04-15T05:02:50;4.30;94.20
19665;DHT22;9980;51.020;7.772;2023-04-15T05:05:16;4.30;94.20
19665;DHT22;9980;51.020;7.772;2023-04-15T05:07:43;4.30;94.20
19665;DHT22;9980;51.020;7.772;2023-04-15T05:10:09;4.30;94.10
19665;DHT22;9980;51.020;7.772;2023-04-15T05:12:35;4.30;94.00
19665;DHT22;9980;51.020;7.772;2023-04-15T05:15:04;4.30;93.90
19665;DHT22;9980;51.020;7.772;2023-04-15T05:17:31;4.30;94.00
19665;DHT22;9980;51.020;7.772;2023-04-15T05:20:00;4.30;94.10
19665;DHT22;9980;51.020;7.772;2023-04-15T05:22:27;4.30;94.10
19665;DHT22;9980;51.020;7.772;2023-04-15T05:24:54;4.30;94.20
19665;DHT22;9980;51.020;7.772;2023-04-15T05:27:20;4.30;94.30
19665;DHT22;9980;51.020;7.772;2023-04-15T05:29:47;4.40;94.40
19665;DHT22;9980;51.020;7.772;2023-04-15T05:32:14;4.40;94.40
19665;DHT22;9980;51.020;7.772;2023-04-15T05:34:40;4.40;94.60
19665;DHT22;9980;51.020;7.772;2023-04-15T05:37:06;4.40;94.70
19665;DHT22;9980;51.020;7.772;2023-04-15T05:39:32;4.40;94.80
19665;DHT22;9980;51.020;7.772;2023-04-15T05:41:59;4.40;94.90
19665;DHT22;9980;51.020;7.772;2023-04-15T05:44:25;4.50;94.80
19665;DHT22;9980;51.020;7.772;2023-04-15T05:46:51;4.50;94.90
19665;DHT22;9980;51.020;7.772;2023-04-15T05:49:18;4.50;95.10
19665;DHT22;9980;51.020;7.772;2023-04-15T05:51:44;4.50;95.20
19665;DHT22;9980;51.020;7.772;2023-04-15T05:54:12;4.60;95.50
19665;DHT22;9980;51.020;7.772;2023-04-15T05:56:38;4.60;95.30
19665;DHT22;9980;51.020;7.772;2023-04-15T05:59:05;4.70;95.10
19665;DHT22;9980;51.020;7.772;2023-04-15T06:01:32;4.70;95.00
19665;DHT22;9980;51.020;7.772;2023-04-15T06:03:59;4.70;95.10
19665;DHT22;9980;51.020;7.772;2023-04-15T06:06:25;4.80;95.40
19665;DHT22;9980;51.020;7.772;2023-04-15T06:08:52;4.80;95.70
19665;DHT22;9980;51.020;7.772;2023-04-15T06:11:20;4.90;96.00
19665;DHT22;9980;51.020;7.772;2023-04-15T06:13:46;4.90;96.30
19665;DHT22;9980;51.020;7.772;2023-04-15T06:16:13;4.90;96.40
19665;DHT22;9980;51.020;7.772;2023-04-15T06:18:39;5.00;96.90
19665;DHT22;9980;51.020;7.772;2023-04-15T06:21:05;5.10;96.60
19665;DHT22;9980;51.020;7.772;2023-04-15T06:23:35;5.10;96.60
19665;DHT22;9980;51.020;7.772;2023-04-15T06:26:01;5.20;96.90
19665;DHT22;9980;51.020;7.772;2023-04-15T06:28:28;5.20;96.90
19665;DHT22;9980;51.020;7.772;2023-04-15T06:30:54;5.30;97.00
19665;DHT22;9980;51.020;7.772;2023-04-15T06:33:21;5.30;97.20
19665;DHT22;9980;51.020;7.772;2023-04-15T06:35:47;5.40;97.30
19665;DHT22;9980;51.020;7.772;2023-04-15T06:38:14;5.50;97.30
19665;DHT22;9980;51.020;7.772;2023-04-15T06:40:41;5.50;97.40
19665;DHT22;9980;51.020;7.772;2023-04-15T06:43:07;5.60;97.90
19665;DHT22;9980;51.020;7.772;2023-04-15T06:45:34;5.70;97.70
19665;DHT22;9980;51.020;7.772;2023-04-15T06:48:00;5.80;97.90
19665;DHT22;9980;51.020;7.772;2023-04-15T06:50:26;5.80;98.00
19665;DHT22;9980;51.020;7.772;2023-04-15T06:52:55;5.90;98.20
19665;DHT22;9980;51.020;7.772;2023-04-15T06:55:22;6.00;98.50
19665;DHT22;9980;51.020;7.772;2023-04-15T06:57:48;6.00;98.50
19665;DHT22;9980;51.020;7.772;2023-04-15T07:00:14;6.10;98.50
19665;DHT22;9980;51.020;7.772;2023-04-15T07:02:41;6.20;98.50
19665;DHT22;9980;51.020;7.772;2023-04-15T07:05:07;6.40;98.70
19665;DHT22;9980;51.020;7.772;2023-04-15T07:07:35;6.50;99.00
19665;DHT22;9980;51.020;7.772;2023-04-15T07:10:01;6.60;99.10
19665;DHT22;9980;51.020;7.772;2023-04-15T07:12:27;6.70;99.40
19665;DHT22;9980;51.020;7.772;2023-04-15T07:14:54;6.80;99.40
19665;DHT22;9980;51.020;7.772;2023-04-15T07:17:20;7.00;99.90
19665;DHT22;9980;51.020;7.772;2023-04-15T07:19:47;7.10;99.90
19665;DHT22;9980;51.020;7.772;2023-04-15T07:22:13;7.30;99.90
19665;DHT22;9980;51.020;7.772;2023-04-15T07:24:39;7.40;99.90
19665;DHT22;9980;51.020;7.772;2023-04-15T07:27:05;7.60;99.90
19665;DHT22;9980;51.020;7.772;2023-04-15T07:29:32;7.80;99.90
19665;DHT22;9980;51.020;7.772;2023-04-15T07:31:58;8.00;99.90
19665;DHT22;9980;51.020;7.772;2023-04-15T07:34:25;8.10;99.90
19665;DHT22;9980;51.020;7.772;2023-04-15T07:36:51;8.40;99.90
19665;DHT22;9980;51.020;7.772;2023-04-15T07:39:17;8.60;99.90
19665;DHT22;9980;51.020;7.772;2023-04-15T07:41:44;8.80;99.90
19665;DHT22;9980;51.020;7.772;2023-04-15T07:44:11;9.00;99.90
19665;DHT22;9980;51.020;7.772;2023-04-15T07:46:37;9.20;99.90
19665;DHT22;9980;51.020;7.772;2023-04-15T07:49:04;9.30;99.90
19665;DHT22;9980;51.020;7.772;2023-04-15T07:51:30;9.50;99.90
19665;DHT22;9980;51.020;7.772;2023-04-15T07:53:57;9.70;99.90
19665;DHT22;9980;51.020;7.772;2023-04-15T07:56:23;9.90;99.90
19665;DHT22;9980;51.020;7.772;2023-04-15T07:58:51;10.00;99.70
19665;DHT22;9980;51.020;7.772;2023-04-15T08:01:17;10.20;99.60
19665;DHT22;9980;51.020;7.772;2023-04-15T08:03:43;10.40;99.40
19665;DHT22;9980;51.020;7.772;2023-04-15T08:06:10;10.50;99.00
19665;DHT22;9980;51.020;7.772;2023-04-15T08:08:37;10.70;98.70
19665;DHT22;9980;51.020;7.772;2023-04-15T08:11:03;10.80;98.50
19665;DHT22;9980;51.020;7.772;2023-04-15T08:13:29;11.00;98.30
19665;DHT22;9980;51.020;7.772;2023-04-15T08:16:16;11.10;98.30
19665;DHT22;9980;51.020;7.772;2023-04-15T08:18:51;11.30;98.10
19665;DHT22;9980;51.020;7.772;2023-04-15T08:21:19;11.50;97.80
19665;DHT22;9980;51.020;7.772;2023-04-15T08:23:46;11.60;97.50
19665;DHT22;9980;51.020;7.772;2023-04-15T08:26:15;11.80;97.50
19665;DHT22;9980;51.020;7.772;2023-04-15T08:28:43;11.90;97.20
19665;DHT22;9980;51.020;7.772;2023-04-15T08:31:11;12.00;97.10
19665;DHT22;9980;51.020;7.772;2023-04-15T08:33:39;12.10;96.70
19665;DHT22;9980;51.020;7.772;2023-04-15T08:36:06;12.20;96.60
19665;DHT22;9980;51.020;7.772;2023-04-15T08:38:32;12.30;96.30
19665;DHT22;9980;51.020;7.772;2023-04-15T08:41:23;12.30;96.00
19665;DHT22;9980;51.020;7.772;2023-04-15T08:43:58;12.40;95.90
19665;DHT22;9980;51.020;7.772;2023-04-15T08:46:30;12.40;95.90
19665;DHT22;9980;51.020;7.772;2023-04-15T08:48:59;12.50;95.70
19665;DHT22;9980;51.020;7.772;2023-04-15T08:51:30;12.60;95.60
19665;DHT22;9980;51.020;7.772;2023-04-15T08:53:57;12.60;95.50
19665;DHT22;9980;51.020;7.772;2023-04-15T08:56:25;12.60;95.60
19665;DHT22;9980;51.020;7.772;2023-04-15T08:58:53;12.70;95.30
19665;DHT22;9980;51.020;7.772;2023-04-15T09:01:19;12.70;95.20
19665;DHT22;9980;51.020;7.772;2023-04-15T09:03:48;12.80;95.20
19665;DHT22;9980;51.020;7.772;2023-04-15T09:06:16;12.80;95.10
19665;DHT22;9980;51.020;7.772;2023-04-15T09:08:43;12.90;94.60
19665;DHT22;9980;51.020;7.772;2023-04-15T09:11:09;12.90;94.30
19665;DHT22;9980;51.020;7.772;2023-04-15T09:13:36;12.90;94.00
19665;DHT22;9980;51.020;7.772;2023-04-15T09:16:04;12.90;94.20
19665;DHT22;9980;51.020;7.772;2023-04-15T09:18:33;12.90;94.20
19665;DHT22;9980;51.020;7.772;2023-04-15T09:21:08;12.90;94.10
19665;DHT22;9980;51.020;7.772;2023-04-15T09:23:39;13.00;94.10
19665;DHT22;9980;51.020;7.772;2023-04-15T09:26:18;13.00;94.00
19665;DHT22;9980;51.020;7.772;2023-04-15T09:28:44;13.00;94.00
19665;DHT22;9980;51.020;7.772;2023-04-15T09:31:11;13.00;94.00
19665;DHT22;9980;51.020;7.772;2023-04-15T09:33:54;13.00;93.90
19665;DHT22;9980;51.020;7.772;2023-04-15T09:36:23;13.10;93.80
19665;DHT22;9980;51.020;7.772;2023-04-15T09:38:57;13.10;93.70
19665;DHT22;9980;51.020;7.772;2023-04-15T09:41:26;13.10;93.60
19665;DHT22;9980;51.020;7.772;2023-04-15T09:43:53;13.20;93.60
19665;DHT22;9980;51.020;7.772;2023-04-15T09:46:20;13.30;93.70
19665;DHT22;9980;51.020;7.772;2023-04-15T09:49:07;13.30;93.70
19665;DHT22;9980;51.020;7.772;2023-04-15T09:51:37;13.40;93.60
19665;DHT22;9980;51.020;7.772;2023-04-15T09:54:04;13.40;93.70
19665;DHT22;9980;51.020;7.772;2023-04-15T09:56:35;13.50;93.50
19665;DHT22;9980;51.020;7.772;2023-04-15T09:59:07;13.60;93.60
19665;DHT22;9980;51.020;7.772;2023-04-15T10:01:34;13.60;93.50
19665;DHT22;9980;51.020;7.772;2023-04-15T10:04:05;13.70;93.50
19665;DHT22;9980;51.020;7.772;2023-04-15T10:06:32;13.80;93.30
19665;DHT22;9980;51.020;7.772;2023-04-15T10:08:59;13.80;93.40
19665;DHT22;9980;51.020;7.772;2023-04-15T10:11:28;13.90;93.20
19665;DHT22;9980;51.020;7.772;2023-04-15T10:13:57;13.90;93.00
19665;DHT22;9980;51.020;7.772;2023-04-15T10:16:26;14.00;93.00
19665;DHT22;9980;51.020;7.772;2023-04-15T10:18:57;14.10;92.80
19665;DHT22;9980;51.020;7.772;2023-04-15T10:21:27;14.10;92.90
19665;DHT22;9980;51.020;7.772;2023-04-15T10:23:57;14.10;92.80
19665;DHT22;9980;51.020;7.772;2023-04-15T10:26:23;14.10;92.80
19665;DHT22;9980;51.020;7.772;2023-04-15T10:28:50;14.20;92.80
19665;DHT22;9980;51.020;7.772;2023-04-15T10:31:18;14.20;92.80
19665;DHT22;9980;51.020;7.772;2023-04-15T10:33:46;14.30;92.80
19665;DHT22;9980;51.020;7.772;2023-04-15T10:36:14;14.30;92.80
19665;DHT22;9980;51.020;7.772;2023-04-15T10:38:42;14.30;92.70
19665;DHT22;9980;51.020;7.772;2023-04-15T10:41:17;14.30;92.70
19665;DHT22;9980;51.020;7.772;2023-04-15T10:46:42;14.30;92.70
19665;DHT22;9980;51.020;7.772;2023-04-15T10:49:11;14.20;92.60
19665;DHT22;9980;51.020;7.772;2023-04-15T10:51:50;14.20;92.70
19665;DHT22;9980;51.020;7.772;2023-04-15T10:59:29;14.20;92.70
19665;DHT22;9980;51.020;7.772;2023-04-15T11:01:59;14.10;92.80
19665;DHT22;9980;51.020;7.772;2023-04-15T11:04:53;14.10;92.80
19665;DHT22;9980;51.020;7.772;2023-04-15T11:12:52;14.00;93.00
19665;DHT22;9980;51.020;7.772;2023-04-15T11:15:36;14.00;93.00
19665;DHT22;9980;51.020;7.772;2023-04-15T11:18:18;13.90;93.00
19665;DHT22;9980;51.020;7.772;2023-04-15T11:21:08;13.80;93.10
19665;DHT22;9980;51.020;7.772;2023-04-15T11:23:41;13.80;93.20
19665;DHT22;9980;51.020;7.772;2023-04-15T11:26:12;13.70;93.40
19665;DHT22;9980;51.020;7.772;2023-04-15T11:28:41;13.60;93.40
19665;DHT22;9980;51.020;7.772;2023-04-15T11:31:11;13.50;93.60
19665;DHT22;9980;51.020;7.772;2023-04-15T11:33:59;13.50;93.80
19665;DHT22;9980;51.020;7.772;2023-04-15T11:36:29;13.40;94.10
19665;DHT22;9980;51.020;7.772;2023-04-15T11:38:58;13.40;94.30
19665;DHT22;9980;51.020;7.772;2023-04-15T11:41:25;13.40;94.50
19665;DHT22;9980;51.020;7.772;2023-04-15T11:43:51;13.40;94.50
19665;DHT22;9980;51.020;7.772;2023-04-15T11:46:18;13.30;94.70
19665;DHT22;9980;51.020;7.772;2023-04-15T11:48:47;13.30;94.80
19665;DHT22;9980;51.020;7.772;2023-04-15T11:51:14;13.30;94.80
19665;DHT22;9980;51.020;7.772;2023-04-15T11:53:45;13.30;94.80
19665;DHT22;9980;51.020;7.772;2023-04-15T11:58:57;13.30;95.30
19665;DHT22;9980;51.020;7.772;2023-04-15T12:04:01;13.30;95.20
19665;DHT22;9980;51.020;7.772;2023-04-15T12:06:37;13.30;95.20
19665;DHT22;9980;51.020;7.772;2023-04-15T12:09:08;13.20;95.40
19665;DHT22;9980;51.020;7.772;2023-04-15T12:14:31;13.20;95.50
19665;DHT22;9980;51.020;7.772;2023-04-15T12:16:59;13.20;95.90
19665;DHT22;9980;51.020;7.772;2023-04-15T12:19:37;13.20;95.90
19665;DHT22;9980;51.020;7.772;2023-04-15T12:22:09;13.20;96.10
19665;DHT22;9980;51.020;7.772;2023-04-15T12:24:42;13.20;95.90
19665;DHT22;9980;51.020;7.772;2023-04-15T12:27:10;13.20;95.90
19665;DHT22;9980;51.020;7.772;2023-04-15T12:29:39;13.20;96.20
19665;DHT22;9980;51.020;7.772;2023-04-15T12:32:11;13.10;96.20
19665;DHT22;9980;51.020;7.772;2023-04-15T12:34:49;13.10;96.30
19665;DHT22;9980;51.020;7.772;2023-04-15T12:37:16;13.10;96.30
19665;DHT22;9980;51.020;7.772;2023-04-15T12:39:48;13.10;96.50
19665;DHT22;9980;51.020;7.772;2023-04-15T12:42:16;13.10;96.70
19665;DHT22;9980;51.020;7.772;2023-04-15T12:44:43;13.20;96.80
19665;DHT22;9980;51.020;7.772;2023-04-15T12:47:10;13.20;96.80
19665;DHT22;9980;51.020;7.772;2023-04-15T12:49:37;13.20;96.70
19665;DHT22;9980;51.020;7.772;2023-04-15T12:52:04;13.20;97.00
19665;DHT22;9980;51.020;7.772;2023-04-15T12:54:33;13.20;97.00
19665;DHT22;9980;51.020;7.772;2023-04-15T12:57:01;13.20;97.00
19665;DHT22;9980;51.020;7.772;2023-04-15T12:59:32;13.30;97.10
19665;DHT22;9980;51.020;7.772;2023-04-15T13:01:58;13.30;97.20
19665;DHT22;9980;51.020;7.772;2023-04-15T13:04:25;13.30;97.10
19665;DHT22;9980;51.020;7.772;2023-04-15T13:06:55;13.30;97.10
19665;DHT22;9980;51.020;7.772;2023-04-15T13:09:21;13.30;97.20
19665;DHT22;9980;51.020;7.772;2023-04-15T13:11:48;13.30;97.10
19665;DHT22;9980;51.020;7.772;2023-04-15T13:14:15;13.30;97.30
19665;DHT22;9980;51.020;7.772;2023-04-15T13:16:41;13.40;97.40
19665;DHT22;9980;51.020;7.772;2023-04-15T13:19:07;13.40;97.30
19665;DHT22;9980;51.020;7.772;2023-04-15T13:21:34;13.40;97.30
19665;DHT22;9980;51.020;7.772;2023-04-15T13:24:01;13.40;97.10
19665;DHT22;9980;51.020;7.772;2023-04-15T13:26:29;13.40;97.30
19665;DHT22;9980;51.020;7.772;2023-04-15T13:28:56;13.40;97.10
19665;DHT22;9980;51.020;7.772;2023-04-15T13:31:22;13.40;97.20
19665;DHT22;9980;51.020;7.772;2023-04-15T13:33:48;13.30;97.40
19665;DHT22;9980;51.020;7.772;2023-04-15T13:36:14;13.40;97.30
19665;DHT22;9980;51.020;7.772;2023-04-15T13:38:41;13.30;97.30
19665;DHT22;9980;51.020;7.772;2023-04-15T13:41:07;13.30;97.30
19665;DHT22;9980;51.020;7.772;2023-04-15T13:43:33;13.30;97.30
19665;DHT22;9980;51.020;7.772;2023-04-15T13:45:59;13.30;97.30
19665;DHT22;9980;51.020;7.772;2023-04-15T13:48:27;13.30;97.40
19665;DHT22;9980;51.020;7.772;2023-04-15T13:50:53;13.30;97.50
19665;DHT22;9980;51.020;7.772;2023-04-15T13:53:19;13.30;97.70
19665;DHT22;9980;51.020;7.772;2023-04-15T13:55:59;13.30;97.60
19665;DHT22;9980;51.020;7.772;2023-04-15T13:58:25;13.30;97.60
19665;DHT22;9980;51.020;7.772;2023-04-15T14:00:52;13.30;97.70
19665;DHT22;9980;51.020;7.772;2023-04-15T14:03:18;13.30;97.60
19665;DHT22;9980;51.020;7.772;2023-04-15T14:05:44;13.30;97.60
19665;DHT22;9980;51.020;7.772;2023-04-15T14:08:10;13.40;97.60
19665;DHT22;9980;51.020;7.772;2023-04-15T14:10:37;13.40;97.50
19665;DHT22;9980;51.020;7.772;2023-04-15T14:13:03;13.40;97.40
19665;DHT22;9980;51.020;7.772;2023-04-15T14:15:29;13.30;97.40
19665;DHT22;9980;51.020;7.772;2023-04-15T14:17:56;13.30;97.30
19665;DHT22;9980;51.020;7.772;2023-04-15T14:20:22;13.30;97.30
19665;DHT22;9980;51.020;7.772;2023-04-15T14:22:49;13.30;97.40
19665;DHT22;9980;51.020;7.772;2023-04-15T14:25:15;13.20;97.50
19665;DHT22;9980;51.020;7.772;2023-04-15T14:27:58;13.20;97.50
19665;DHT22;9980;51.020;7.772;2023-04-15T14:30:24;13.10;97.60
19665;DHT22;9980;51.020;7.772;2023-04-15T14:32:51;13.10;97.80
19665;DHT22;9980;51.020;7.772;2023-04-15T14:35:17;13.10;97.90
19665;DHT22;9980;51.020;7.772;2023-04-15T14:37:43;13.10;97.80
19665;DHT22;9980;51.020;7.772;2023-04-15T14:40:10;13.10;97.90
19665;DHT22;9980;51.020;7.772;2023-04-15T14:42:36;13.10;98.20
19665;DHT22;9980;51.020;7.772;2023-04-15T14:45:02;13.00;98.10
19665;DHT22;9980;51.020;7.772;2023-04-15T14:47:29;13.10;98.10
19665;DHT22;9980;51.020;7.772;2023-04-15T14:49:56;13.10;98.00
19665;DHT22;9980;51.020;7.772;2023-04-15T14:52:22;13.00;98.00
19665;DHT22;9980;51.020;7.772;2023-04-15T14:54:48;13.00;97.90
19665;DHT22;9980;51.020;7.772;2023-04-15T14:57:15;13.00;98.00
19665;DHT22;9980;51.020;7.772;2023-04-15T14:59:41;13.00;98.00
19665;DHT22;9980;51.020;7.772;2023-04-15T15:02:07;13.00;98.00
19665;DHT22;9980;51.020;7.772;2023-04-15T15:04:34;13.00;97.90
19665;DHT22;9980;51.020;7.772;2023-04-15T15:07:01;12.90;98.10
19665;DHT22;9980;51.020;7.772;2023-04-15T15:09:27;12.90;98.20
19665;DHT22;9980;51.020;7.772;2023-04-15T15:11:54;12.90;98.40
19665;DHT22;9980;51.020;7.772;2023-04-15T15:14:21;12.90;98.30
19665;DHT22;9980;51.020;7.772;2023-04-15T15:16:48;12.90;98.30
19665;DHT22;9980;51.020;7.772;2023-04-15T15:19:15;12.80;98.30
19665;DHT22;9980;51.020;7.772;2023-04-15T15:21:41;12.80;98.20
19665;DHT22;9980;51.020;7.772;2023-04-15T15:24:07;12.80;98.30
19665;DHT22;9980;51.020;7.772;2023-04-15T15:26:34;12.80;98.40
19665;DHT22;9980;51.020;7.772;2023-04-15T15:29:00;12.70;98.40
19665;DHT22;9980;51.020;7.772;2023-04-15T15:31:27;12.70;98.40
19665;DHT22;9980;51.020;7.772;2023-04-15T15:33:53;12.70;98.40
19665;DHT22;9980;51.020;7.772;2023-04-15T15:36:19;12.70;98.40
19665;DHT22;9980;51.020;7.772;2023-04-15T15:38:45;12.70;98.40
19665;DHT22;9980;51.020;7.772;2023-04-15T15:41:12;12.60;98.50
19665;DHT22;9980;51.020;7.772;2023-04-15T15:43:38;12.60;98.50
19665;DHT22;9980;51.020;7.772;2023-04-15T15:46:04;12.60;98.50
19665;DHT22;9980;51.020;7.772;2023-04-15T15:48:30;12.60;98.60
19665;DHT22;9980;51.020;7.772;2023-04-15T15:50:57;12.60;98.50
19665;DHT22;9980;51.020;7.772;2023-04-15T15:53:23;12.50;98.60
19665;DHT22;9980;51.020;7.772;2023-04-15T15:55:50;12.50;98.60
19665;DHT22;9980;51.020;7.772;2023-04-15T15:58:19;12.50;98.70
19665;DHT22;9980;51.020;7.772;2023-04-15T16:00:45;12.40;98.80
19665;DHT22;9980;51.020;7.772;2023-04-15T16:03:12;12.40;98.80
19665;DHT22;9980;51.020;7.772;2023-04-15T16:05:38;12.40;98.90
19665;DHT22;9980;51.020;7.772;2023-04-15T16:08:05;12.40;98.90
19665;DHT22;9980;51.020;7.772;2023-04-15T16:10:31;12.30;98.80
19665;DHT22;9980;51.020;7.772;2023-04-15T16:12:57;12.30;98.90
19665;DHT22;9980;51.020;7.772;2023-04-15T16:15:24;12.30;99.00
19665;DHT22;9980;51.020;7.772;2023-04-15T16:17:51;12.20;99.00
19665;DHT22;9980;51.020;7.772;2023-04-15T16:20:17;12.20;99.10